Time;durP1;ratioP1;P1;durP2;ratioP2;P2;SDS_P1;SDS_P2;PMS_P1;PMS_P2;Temp;Humidity;BMP_temperature;BMP_pressure;BME280_temperature;BME280_humidity;BME280_pressure;Samples;Min_cycle;Max_cycle;Signal;HPM_P1;HPM_P2
2023/08/23 00:01:54;;;;;;;5.32;4.75;;;22.70;99.90;;;;;;4987438;28;20034;-33
2023/08/23 00:04:19;;;;;;;5.85;4.20;;;22.60;99.90;;;;;;4996763;28;20428;-37
2023/08/23 00:06:45;;;;;;;7.13;5.05;;;22.60;99.90;;;;;;4998550;28;20049;-34
2023/08/23 00:09:11;;;;;;;7.88;5.05;;;22.50;99.90;;;;;;4995877;28;20054;-37
2023/08/23 00:11:37;;;;;;;6.47;4.75;;;22.50;99.90;;;;;;4991852;28;20384;-41
2023/08/23 00:14:03;;;;;;;6.35;5.28;;;22.40;99.90;;;;;;4992771;28;20053;-35
2023/08/23 00:16:28;;;;;;;5.03;4.53;;;22.40;99.90;;;;;;4991396;28;20052;-40
2023/08/23 00:18:54;;;;;;;5.05;4.65;;;22.40;99.90;;;;;;4994592;28;20034;-40
2023/08/23 00:21:20;;;;;;;5.93;4.75;;;22.40;99.90;;;;;;4995640;28;20025;-40
2023/08/23 00:23:45;;;;;;;7.05;4.82;;;22.50;99.90;;;;;;4995420;28;20519;-41
2023/08/23 00:26:11;;;;;;;6.93;5.05;;;22.50;99.90;;;;;;4993279;28;20034;-36
2023/08/23 00:28:39;;;;;;;5.18;4.68;;;22.50;99.90;;;;;;4988349;28;20026;-39
2023/08/23 00:31:04;;;;;;;7.97;5.47;;;22.50;99.90;;;;;;4989282;28;20042;-40
2023/08/23 00:33:30;;;;;;;6.72;4.50;;;22.60;99.90;;;;;;4991964;28;20091;-41
2023/08/23 00:35:56;;;;;;;5.68;4.43;;;22.60;99.90;;;;;;4988272;28;20053;-41
2023/08/23 00:38:21;;;;;;;6.78;5.22;;;22.60;99.90;;;;;;4994035;28;20037;-36
2023/08/23 00:40:47;;;;;;;7.82;5.03;;;22.50;99.90;;;;;;4994419;28;20411;-41
2023/08/23 00:43:12;;;;;;;6.60;4.63;;;22.50;99.90;;;;;;4990964;28;20060;-40
2023/08/23 00:45:40;;;;;;;6.00;5.03;;;22.50;99.90;;;;;;4989491;28;20030;-35
2023/08/23 00:48:08;;;;;;;5.55;4.70;;;22.40;99.90;;;;;;4990470;28;20119;-40
2023/08/23 00:50:35;;;;;;;6.35;4.93;;;22.40;99.90;;;;;;4994905;28;20033;-39
2023/08/23 00:53:06;;;;;;;7.10;5.43;;;22.50;99.90;;;;;;4992249;28;20037;-35
2023/08/23 00:55:32;;;;;;;6.22;5.57;;;22.40;99.90;;;;;;4991302;28;20030;-38
2023/08/23 00:57:58;;;;;;;7.53;4.82;;;22.40;99.90;;;;;;4990921;28;20030;-38
2023/08/23 01:00:25;;;;;;;5.78;5.25;;;22.30;99.90;;;;;;4988137;28;20113;-38
2023/08/23 01:02:51;;;;;;;7.88;5.63;;;22.40;99.90;;;;;;4990296;28;20133;-39
2023/08/23 01:05:18;;;;;;;5.93;4.88;;;22.40;99.90;;;;;;4990543;28;20386;-41
2023/08/23 01:07:51;;;;;;;5.75;4.97;;;22.40;99.90;;;;;;4991579;28;20041;-39
2023/08/23 01:10:44;;;;;;;6.78;4.93;;;22.30;99.90;;;;;;4991478;28;20453;-41
2023/08/23 01:13:16;;;;;;;4.95;4.53;;;22.40;99.90;;;;;;4994536;28;20022;-39
2023/08/23 01:15:43;;;;;;;6.80;5.05;;;22.50;99.90;;;;;;4990377;28;20038;-39
2023/08/23 01:18:10;;;;;;;5.70;5.20;;;22.50;99.90;;;;;;4986554;28;20058;-34
2023/08/23 01:20:37;;;;;;;6.72;4.60;;;22.50;99.90;;;;;;4991517;28;20030;-33
2023/08/23 01:23:12;;;;;;;6.95;4.70;;;22.50;99.90;;;;;;4991540;28;20105;-34
2023/08/23 01:25:51;;;;;;;5.72;5.05;;;22.40;99.90;;;;;;4990459;28;20026;-33
2023/08/23 01:28:17;;;;;;;5.50;5.00;;;22.40;99.90;;;;;;4994951;28;20030;-31
2023/08/23 01:30:44;;;;;;;5.68;5.13;;;22.30;99.90;;;;;;4993530;28;21246;-31
2023/08/23 01:33:20;;;;;;;5.25;4.75;;;22.30;99.90;;;;;;4992458;28;20036;-31
2023/08/23 01:36:08;;;;;;;7.97;4.82;;;22.30;99.90;;;;;;4994145;28;20139;-33
2023/08/23 01:38:34;;;;;;;6.07;5.40;;;22.20;99.90;;;;;;4992337;28;20041;-32
2023/08/23 01:41:00;;;;;;;10.73;4.75;;;22.20;99.90;;;;;;4993555;28;20038;-33
2023/08/23 01:43:26;;;;;;;6.70;5.20;;;22.20;99.90;;;;;;4998019;28;20061;-35
2023/08/23 01:45:52;;;;;;;6.45;4.90;;;22.20;99.90;;;;;;4991859;28;20480;-30
2023/08/23 01:48:17;;;;;;;5.70;5.10;;;22.20;99.90;;;;;;4991622;28;20022;-33
2023/08/23 01:50:43;;;;;;;5.85;5.30;;;22.20;99.90;;;;;;4995374;28;20563;-31
2023/08/23 01:53:09;;;;;;;6.47;5.78;;;22.20;99.90;;;;;;4992172;28;20868;-34
2023/08/23 01:55:35;;;;;;;8.35;5.25;;;22.20;99.90;;;;;;4999802;28;20044;-30
2023/08/23 01:58:00;;;;;;;6.95;5.50;;;22.20;99.90;;;;;;4994733;28;20381;-34
2023/08/23 02:00:26;;;;;;;6.70;5.30;;;22.10;99.90;;;;;;4991810;28;20825;-33
2023/08/23 02:02:51;;;;;;;8.15;5.20;;;22.20;99.90;;;;;;5001200;28;20052;-31
2023/08/23 02:05:17;;;;;;;8.35;5.40;;;22.30;99.90;;;;;;4996003;28;20030;-32
2023/08/23 02:07:43;;;;;;;6.20;5.60;;;22.20;99.90;;;;;;4999911;28;20033;-32
2023/08/23 02:10:08;;;;;;;7.28;5.25;;;22.00;99.90;;;;;;4995928;28;20871;-32
2023/08/23 02:12:34;;;;;;;6.20;5.22;;;21.90;99.90;;;;;;4993166;28;20038;-34
2023/08/23 02:14:59;;;;;;;6.80;4.90;;;21.90;99.90;;;;;;4997311;28;20034;-34
2023/08/23 02:17:25;;;;;;;8.07;5.70;;;22.00;99.90;;;;;;4992780;28;20031;-32
2023/08/23 02:19:50;;;;;;;5.93;5.15;;;22.00;99.90;;;;;;4995212;28;20431;-32
2023/08/23 02:22:16;;;;;;;7.43;5.40;;;21.90;99.90;;;;;;4997345;28;20041;-32
2023/08/23 02:24:41;;;;;;;6.40;4.95;;;21.90;99.90;;;;;;4999011;28;20125;-35
2023/08/23 02:27:07;;;;;;;7.97;5.10;;;21.80;99.90;;;;;;4993154;28;20026;-33
2023/08/23 02:29:33;;;;;;;8.85;6.20;;;21.80;99.90;;;;;;4994220;28;20040;-39
2023/08/23 02:31:58;;;;;;;6.30;5.70;;;21.90;99.90;;;;;;4991045;28;20030;-38
2023/08/23 02:34:24;;;;;;;6.65;5.63;;;21.90;99.90;;;;;;4995728;28;20420;-38
2023/08/23 02:36:50;;;;;;;6.50;5.90;;;21.90;99.90;;;;;;4992041;28;20048;-37
2023/08/23 02:39:16;;;;;;;6.05;5.20;;;21.60;99.90;;;;;;4995189;28;20129;-37
2023/08/23 02:41:42;;;;;;;9.20;5.85;;;21.60;99.90;;;;;;4997577;28;20447;-33
2023/08/23 02:44:07;;;;;;;7.10;5.13;;;21.70;99.90;;;;;;5002760;28;20030;-32
2023/08/23 02:46:33;;;;;;;6.75;5.45;;;21.80;99.90;;;;;;4997753;28;20022;-31
2023/08/23 02:48:59;;;;;;;5.93;5.32;;;21.80;99.90;;;;;;4996278;28;20021;-37
2023/08/23 02:51:24;;;;;;;7.00;5.90;;;21.90;99.90;;;;;;4997921;28;20156;-31
2023/08/23 02:53:50;;;;;;;7.30;5.20;;;21.90;99.90;;;;;;4996263;28;20026;-31
2023/08/23 02:56:15;;;;;;;7.38;5.70;;;21.90;99.90;;;;;;4999242;28;20041;-32
2023/08/23 02:58:41;;;;;;;6.63;5.30;;;22.00;99.90;;;;;;4996236;28;20044;-35
2023/08/23 03:01:06;;;;;;;10.43;5.47;;;22.00;99.90;;;;;;4993019;28;20043;-31
2023/08/23 03:03:32;;;;;;;5.88;5.13;;;22.10;99.90;;;;;;4990726;28;20266;-31
2023/08/23 03:05:58;;;;;;;6.43;5.15;;;22.00;99.90;;;;;;4999101;28;20025;-36
2023/08/23 03:08:24;;;;;;;7.85;5.32;;;22.00;99.90;;;;;;4996922;28;20061;-32
2023/08/23 03:10:50;;;;;;;7.80;5.70;;;22.00;99.90;;;;;;4997652;28;20026;-34
2023/08/23 03:13:16;;;;;;;8.07;5.82;;;22.10;99.90;;;;;;4994375;28;20038;-31
2023/08/23 03:15:42;;;;;;;6.40;5.57;;;22.10;99.90;;;;;;4998085;28;20045;-30
2023/08/23 03:18:07;;;;;;;6.45;5.10;;;22.10;99.90;;;;;;4995698;28;20356;-32
2023/08/23 03:20:33;;;;;;;6.07;5.28;;;22.10;99.90;;;;;;4995383;28;20108;-30
2023/08/23 03:22:59;;;;;;;6.50;5.75;;;22.10;99.90;;;;;;4995003;28;20088;-32
2023/08/23 03:25:25;;;;;;;6.65;5.75;;;22.00;99.90;;;;;;4990698;28;20111;-30
2023/08/23 03:27:54;;;;;;;9.57;5.88;;;22.00;99.90;;;;;;5002174;28;20022;-31
2023/08/23 03:30:20;;;;;;;6.32;4.78;;;21.90;99.90;;;;;;4992329;28;20064;-35
2023/08/23 03:32:47;;;;;;;11.25;5.55;;;21.90;99.90;;;;;;4996531;28;20096;-31
2023/08/23 03:35:12;;;;;;;5.97;5.38;;;22.00;99.90;;;;;;4992234;28;20037;-32
2023/08/23 03:37:39;;;;;;;8.95;6.18;;;22.00;99.90;;;;;;4993364;28;20045;-41
2023/08/23 03:40:05;;;;;;;6.70;4.90;;;22.00;99.90;;;;;;4999804;28;20783;-38
2023/08/23 03:42:31;;;;;;;8.43;5.45;;;22.00;99.90;;;;;;4990854;28;21922;-38
2023/08/23 03:44:56;;;;;;;6.75;5.60;;;22.10;99.90;;;;;;4995328;28;20036;-40
2023/08/23 03:47:22;;;;;;;8.77;5.65;;;22.00;99.90;;;;;;4990760;28;20034;-38
2023/08/23 03:49:48;;;;;;;6.28;5.22;;;21.90;99.90;;;;;;4994113;28;20041;-39
2023/08/23 03:52:14;;;;;;;6.75;5.57;;;21.90;99.90;;;;;;4990010;28;20397;-41
2023/08/23 03:54:39;;;;;;;8.20;5.70;;;21.90;99.90;;;;;;4992958;28;20060;-40
2023/08/23 03:57:05;;;;;;;8.95;6.40;;;21.80;99.90;;;;;;4989999;28;20062;-38
2023/08/23 03:59:31;;;;;;;9.20;5.88;;;21.80;99.90;;;;;;4990387;28;20033;-39
2023/08/23 04:01:56;;;;;;;9.18;5.65;;;21.80;99.90;;;;;;4989053;28;20042;-40
2023/08/23 04:04:22;;;;;;;6.25;5.63;;;21.70;99.90;;;;;;4994598;28;20034;-37
2023/08/23 04:06:47;;;;;;;8.80;5.57;;;21.60;99.90;;;;;;4986909;28;20030;-35
2023/08/23 04:09:13;;;;;;;12.45;5.88;;;21.70;99.90;;;;;;4991086;28;20042;-37
2023/08/23 04:11:40;;;;;;;10.13;6.05;;;21.80;99.90;;;;;;5000448;28;20030;-39
2023/08/23 04:14:06;;;;;;;8.27;5.55;;;21.80;99.90;;;;;;4996866;28;20104;-40
2023/08/23 04:16:32;;;;;;;10.70;5.85;;;21.80;99.90;;;;;;4988599;28;20061;-38
2023/08/23 04:18:57;;;;;;;9.98;5.57;;;21.80;99.90;;;;;;4987981;28;20163;-41
2023/08/23 04:21:24;;;;;;;9.77;5.68;;;21.70;99.90;;;;;;4987856;28;20066;-39
2023/08/23 04:23:50;;;;;;;9.53;5.30;;;21.60;99.90;;;;;;4993851;28;20045;-35
2023/08/23 04:26:16;;;;;;;10.25;5.53;;;21.60;99.90;;;;;;4986798;28;20022;-38
2023/08/23 04:28:41;;;;;;;9.82;5.50;;;21.60;99.90;;;;;;4989692;28;20693;-36
2023/08/23 04:31:07;;;;;;;6.85;5.45;;;21.50;99.90;;;;;;4994097;28;20128;-40
2023/08/23 04:33:34;;;;;;;7.85;6.20;;;21.50;99.90;;;;;;4993381;28;20022;-39
2023/08/23 04:36:01;;;;;;;7.47;6.10;;;21.40;99.90;;;;;;4990262;28;20625;-33
2023/08/23 04:38:27;;;;;;;8.60;6.15;;;21.20;99.90;;;;;;4990931;28;20034;-41
2023/08/23 04:41:00;;;;;;;8.65;5.70;;;21.10;99.90;;;;;;4990874;28;20394;-36
2023/08/23 04:43:26;;;;;;;7.75;5.60;;;21.20;99.90;;;;;;4995014;28;20513;-38
2023/08/23 04:45:56;;;;;;;6.93;5.53;;;21.20;99.90;;;;;;4990923;28;20029;-40
2023/08/23 04:48:23;;;;;;;8.63;6.53;;;21.20;99.90;;;;;;4989780;28;20022;-34
2023/08/23 04:50:57;;;;;;;9.45;5.90;;;21.20;99.90;;;;;;4989125;28;20034;-37
2023/08/23 04:53:23;;;;;;;8.32;6.03;;;21.30;99.90;;;;;;4993303;28;20069;-34
2023/08/23 04:55:49;;;;;;;6.63;5.93;;;21.30;99.90;;;;;;4992190;28;20034;-37
2023/08/23 04:58:16;;;;;;;7.22;6.10;;;21.30;99.90;;;;;;4995225;28;20037;-33
2023/08/23 05:00:43;;;;;;;8.75;6.07;;;21.40;99.90;;;;;;4987226;28;22213;-36
2023/08/23 05:03:09;;;;;;;8.85;6.03;;;21.40;99.90;;;;;;4988665;28;20120;-35
2023/08/23 05:05:35;;;;;;;9.18;6.22;;;21.50;99.90;;;;;;4992453;28;20533;-31
2023/08/23 05:08:01;;;;;;;7.93;6.10;;;21.50;99.90;;;;;;4987923;28;20110;-33
2023/08/23 05:10:27;;;;;;;6.70;5.80;;;21.50;99.90;;;;;;4992438;28;20034;-34
2023/08/23 05:12:55;;;;;;;8.48;5.78;;;21.50;99.90;;;;;;4997624;28;20040;-33
2023/08/23 05:15:22;;;;;;;11.50;6.63;;;21.60;99.90;;;;;;4997467;28;20038;-38
2023/08/23 05:17:48;;;;;;;8.00;5.90;;;21.60;99.90;;;;;;4994486;28;20041;-34
2023/08/23 05:20:14;;;;;;;6.15;5.45;;;21.60;99.90;;;;;;4996096;28;20034;-33
2023/08/23 05:22:40;;;;;;;7.53;5.88;;;21.60;99.90;;;;;;4991710;28;20054;-36
2023/08/23 05:25:06;;;;;;;6.55;5.85;;;21.60;99.90;;;;;;4992984;28;20069;-31
2023/08/23 05:27:32;;;;;;;7.47;5.72;;;21.60;99.90;;;;;;5000254;28;20029;-34
2023/08/23 05:29:59;;;;;;;6.20;5.57;;;21.60;99.90;;;;;;5002113;28;20030;-34
2023/08/23 05:32:25;;;;;;;8.38;6.15;;;21.70;99.90;;;;;;5002536;28;20084;-35
2023/08/23 05:34:51;;;;;;;14.20;6.60;;;21.70;99.90;;;;;;5007963;28;20030;-32
2023/08/23 05:37:19;;;;;;;15.90;6.88;;;21.70;99.90;;;;;;5004212;28;20415;-31
2023/08/23 05:39:45;;;;;;;12.65;6.40;;;21.80;99.90;;;;;;5009312;28;20042;-32
2023/08/23 05:42:11;;;;;;;11.75;7.57;;;21.90;99.90;;;;;;4999331;28;20045;-32
2023/08/23 05:44:36;;;;;;;10.98;6.55;;;22.00;99.90;;;;;;5003017;28;20033;-31
2023/08/23 05:47:02;;;;;;;13.85;7.00;;;22.00;99.90;;;;;;4998988;28;20699;-32
2023/08/23 05:49:28;;;;;;;15.32;6.82;;;22.10;99.90;;;;;;5001163;28;20479;-32
2023/08/23 05:51:53;;;;;;;11.63;7.15;;;22.20;99.90;;;;;;4998559;28;20037;-33
2023/08/23 05:54:19;;;;;;;10.73;6.72;;;22.30;99.90;;;;;;4998649;28;20087;-34
2023/08/23 05:56:45;;;;;;;7.35;6.55;;;22.30;99.90;;;;;;4997149;28;20034;-31
2023/08/23 05:59:10;;;;;;;9.50;6.22;;;22.30;99.90;;;;;;4996341;28;20033;-36
2023/08/23 06:01:36;;;;;;;9.07;6.40;;;22.30;99.90;;;;;;4996959;28;20616;-35
2023/08/23 06:04:02;;;;;;;11.73;7.25;;;22.30;99.90;;;;;;4998508;28;20029;-37
2023/08/23 06:06:27;;;;;;;9.25;6.78;;;22.30;99.90;;;;;;4998063;28;20029;-33
2023/08/23 06:08:53;;;;;;;9.93;7.20;;;22.30;99.90;;;;;;5000735;28;20399;-34
2023/08/23 06:11:18;;;;;;;8.32;7.45;;;22.30;99.90;;;;;;5007218;28;20118;-32
2023/08/23 06:13:46;;;;;;;10.98;7.65;;;22.40;99.90;;;;;;5001560;28;21616;-34
2023/08/23 06:16:11;;;;;;;12.02;8.02;;;22.50;99.90;;;;;;5001458;28;20598;-35
2023/08/23 06:18:37;;;;;;;11.50;7.43;;;22.50;99.90;;;;;;5003081;28;20038;-35
2023/08/23 06:21:03;;;;;;;8.23;7.40;;;22.50;99.90;;;;;;4999874;28;20502;-33
2023/08/23 06:23:28;;;;;;;9.73;7.53;;;22.70;99.90;;;;;;4999219;28;20041;-35
2023/08/23 06:25:58;;;;;;;9.30;7.00;;;22.80;99.90;;;;;;5000993;28;20115;-33
2023/08/23 06:28:24;;;;;;;7.80;7.00;;;22.90;99.90;;;;;;5003838;28;20026;-33
2023/08/23 06:30:49;;;;;;;11.38;8.00;;;23.10;99.90;;;;;;4998643;28;20152;-34
2023/08/23 06:33:15;;;;;;;10.57;8.18;;;23.20;99.90;;;;;;5000981;28;20057;-33
2023/08/23 06:35:40;;;;;;;13.57;9.10;;;23.40;99.90;;;;;;4999085;28;20104;-35
2023/08/23 06:38:06;;;;;;;9.95;8.25;;;23.40;99.90;;;;;;4996223;28;20050;-34
2023/08/23 06:40:32;;;;;;;10.50;7.85;;;23.30;99.90;;;;;;5001656;28;20471;-35
2023/08/23 06:42:57;;;;;;;10.98;8.05;;;23.40;99.90;;;;;;4999706;28;20410;-32
2023/08/23 06:45:23;;;;;;;10.95;8.10;;;23.50;99.90;;;;;;5003612;28;20057;-34
2023/08/23 06:47:49;;;;;;;8.80;7.57;;;23.80;99.90;;;;;;4993602;28;20459;-36
2023/08/23 06:50:15;;;;;;;11.23;8.15;;;23.90;99.90;;;;;;4998756;28;20598;-34
2023/08/23 06:52:40;;;;;;;10.55;7.53;;;23.90;99.90;;;;;;4998000;28;20029;-34
2023/08/23 06:55:06;;;;;;;8.23;7.20;;;24.10;99.90;;;;;;5002114;28;20033;-33
2023/08/23 06:57:32;;;;;;;7.72;6.60;;;24.10;99.90;;;;;;4999914;28;20084;-35
2023/08/23 06:59:58;;;;;;;10.35;7.32;;;24.20;99.90;;;;;;4999469;28;20042;-32
2023/08/23 07:02:27;;;;;;;8.85;7.05;;;24.30;99.90;;;;;;4996271;28;20076;-34
2023/08/23 07:04:52;;;;;;;8.82;7.10;;;24.30;99.90;;;;;;5001334;28;20476;-38
2023/08/23 07:07:22;;;;;;;9.20;7.13;;;24.20;99.90;;;;;;5002360;28;20037;-36
2023/08/23 07:09:48;;;;;;;9.57;6.93;;;24.20;99.90;;;;;;5001540;28;20030;-35
2023/08/23 07:12:14;;;;;;;8.98;6.38;;;24.30;99.90;;;;;;4998398;28;20033;-40
2023/08/23 07:14:39;;;;;;;7.10;6.40;;;24.50;99.90;;;;;;5000465;28;20041;-40
2023/08/23 07:17:05;;;;;;;8.25;6.35;;;24.50;99.90;;;;;;5000301;28;20026;-37
2023/08/23 07:19:31;;;;;;;7.68;6.63;;;24.70;99.90;;;;;;4993362;28;20398;-36
2023/08/23 07:21:58;;;;;;;7.65;6.72;;;24.70;99.90;;;;;;4994964;28;20600;-34
2023/08/23 07:24:23;;;;;;;8.82;6.50;;;24.80;99.90;;;;;;5002575;28;20076;-40
2023/08/23 07:26:49;;;;;;;9.48;6.45;;;24.90;99.90;;;;;;4996925;28;20030;-35
2023/08/23 07:29:16;;;;;;;8.55;6.38;;;25.00;99.90;;;;;;4999497;28;20030;-39
2023/08/23 07:31:45;;;;;;;10.63;6.82;;;25.10;99.90;;;;;;5002058;28;20496;-37
2023/08/23 07:34:11;;;;;;;7.72;5.85;;;25.20;99.90;;;;;;5002850;28;20034;-41
2023/08/23 07:36:36;;;;;;;7.32;6.38;;;25.20;99.90;;;;;;4999382;28;20462;-40
2023/08/23 07:39:03;;;;;;;8.20;6.30;;;25.30;99.90;;;;;;4997787;28;20030;-38
2023/08/23 07:41:29;;;;;;;6.50;5.82;;;25.40;99.90;;;;;;5000787;28;20618;-40
2023/08/23 07:43:55;;;;;;;8.25;6.50;;;25.70;99.90;;;;;;4997001;28;20105;-38
2023/08/23 07:46:21;;;;;;;9.30;6.70;;;25.90;99.90;;;;;;5000596;28;20129;-40
2023/08/23 07:48:46;;;;;;;7.68;6.10;;;26.10;99.90;;;;;;4996231;28;20054;-40
2023/08/23 07:51:12;;;;;;;7.70;6.40;;;26.10;99.90;;;;;;4999152;28;20414;-35
2023/08/23 07:53:37;;;;;;;7.60;6.85;;;26.20;99.90;;;;;;4995646;28;20442;-37
2023/08/23 07:56:03;;;;;;;7.57;6.43;;;26.40;99.90;;;;;;4999788;28;20042;-37
2023/08/23 07:58:29;;;;;;;10.07;7.10;;;26.20;99.90;;;;;;5002240;28;20026;-39
2023/08/23 08:00:55;;;;;;;8.32;7.50;;;26.10;99.90;;;;;;4992438;28;20065;-37
2023/08/23 08:03:20;;;;;;;10.85;6.70;;;26.20;99.90;;;;;;5002260;28;20031;-39
2023/08/23 08:05:46;;;;;;;8.45;6.10;;;26.20;99.90;;;;;;4998166;28;20029;-41
2023/08/23 08:11:34;;;;;;;8.77;7.45;;;26.50;99.90;;;;;;5007478;28;20044;-39
2023/08/23 08:13:59;;;;;;;8.00;7.20;;;26.10;99.90;;;;;;5001230;28;20033;-39
2023/08/23 08:16:25;;;;;;;9.07;7.13;;;26.20;99.90;;;;;;4999689;28;20030;-40
2023/08/23 08:18:50;;;;;;;7.05;6.10;;;26.30;99.90;;;;;;5002410;28;20029;-30
2023/08/23 08:21:17;;;;;;;8.80;6.18;;;26.30;99.90;;;;;;5001772;28;20034;-32
2023/08/23 08:23:46;;;;;;;8.13;5.80;;;26.50;99.90;;;;;;5000560;28;20029;-31
2023/08/23 08:26:13;;;;;;;9.00;6.60;;;26.50;99.90;;;;;;5001913;28;20104;-34
2023/08/23 08:28:42;;;;;;;8.52;6.38;;;26.40;99.90;;;;;;5002006;28;20032;-38
2023/08/23 08:31:08;;;;;;;7.43;5.57;;;26.30;99.90;;;;;;4993538;28;20038;-38
2023/08/23 08:33:34;;;;;;;7.85;5.60;;;26.70;99.90;;;;;;4998246;28;20069;-38
2023/08/23 08:36:00;;;;;;;7.43;5.45;;;27.10;99.90;;;;;;5001672;28;20464;-40
2023/08/23 08:38:26;;;;;;;7.30;6.15;;;27.50;99.90;;;;;;4995309;28;20438;-40
2023/08/23 08:40:51;;;;;;;8.18;5.90;;;27.50;99.90;;;;;;5002765;28;20451;-38
2023/08/23 08:43:18;;;;;;;7.28;5.53;;;27.40;99.90;;;;;;5000496;28;20438;-39
2023/08/23 08:45:44;;;;;;;6.90;5.60;;;27.60;99.90;;;;;;4999238;28;20034;-39
2023/08/23 08:48:09;;;;;;;7.53;5.75;;;27.60;99.90;;;;;;4993821;28;20036;-35
2023/08/23 08:50:37;;;;;;;8.95;5.35;;;27.60;99.90;;;;;;5000781;28;20041;-32
2023/08/23 08:53:07;;;;;;;8.77;5.43;;;27.80;99.90;;;;;;4996042;28;20037;-34
2023/08/23 08:55:34;;;;;;;4.78;4.38;;;28.10;99.90;;;;;;4995170;28;20054;-34
2023/08/23 08:58:01;;;;;;;7.63;4.93;;;28.00;99.90;;;;;;5002639;28;20037;-31
2023/08/23 09:00:27;;;;;;;7.77;5.83;;;28.30;99.90;;;;;;5004180;28;20112;-32
2023/08/23 09:02:54;;;;;;;5.38;4.88;;;28.60;99.90;;;;;;4999603;28;20414;-34
2023/08/23 09:05:24;;;;;;;7.40;5.72;;;28.60;99.90;;;;;;4998732;28;20034;-33
2023/08/23 09:07:50;;;;;;;6.07;5.30;;;28.90;99.90;;;;;;5001174;28;20030;-33
2023/08/23 09:10:17;;;;;;;6.38;4.32;;;28.60;99.90;;;;;;4999813;28;20033;-34
2023/08/23 09:12:42;;;;;;;6.57;4.85;;;28.80;99.90;;;;;;4999397;28;20033;-32
2023/08/23 09:15:08;;;;;;;5.97;4.90;;;28.90;99.90;;;;;;4994309;28;20083;-37
2023/08/23 09:17:35;;;;;;;6.60;5.32;;;29.00;99.90;;;;;;4997312;28;20033;-32
2023/08/23 09:20:08;;;;;;;8.32;5.43;;;28.90;99.90;;;;;;4987806;28;20061;-35
2023/08/23 09:22:33;;;;;;;6.65;5.65;;;28.70;99.90;;;;;;4985148;28;20087;-35
2023/08/23 09:25:01;;;;;;;7.32;5.15;;;28.30;99.90;;;;;;4983313;28;21705;-37
2023/08/23 09:27:26;;;;;;;;;;;28.20;99.90;;;;;;4985347;28;20033;-33
2023/08/23 09:29:58;;;;;;;5.35;4.47;;;28.60;99.90;;;;;;4999686;28;19913;-34
2023/08/23 09:32:25;;;;;;;5.38;4.05;;;28.70;99.90;;;;;;4995942;28;20042;-32
2023/08/23 09:34:51;;;;;;;5.40;3.80;;;29.10;99.90;;;;;;5000091;28;20379;-32
2023/08/23 09:37:17;;;;;;;6.38;3.70;;;29.00;99.90;;;;;;4997207;28;20046;-33
2023/08/23 09:39:43;;;;;;;6.80;3.95;;;29.50;99.90;;;;;;4998022;28;20503;-38
2023/08/23 09:42:13;;;;;;;5.43;3.80;;;29.70;99.90;;;;;;4997103;28;20046;-34
2023/08/23 09:44:46;;;;;;;5.45;4.32;;;29.70;99.90;;;;;;4991526;28;20044;-32
2023/08/23 09:47:21;;;;;;;5.45;4.63;;;30.10;99.90;;;;;;4991462;28;20040;-35
2023/08/23 09:49:48;;;;;;;6.20;4.78;;;30.00;99.90;;;;;;4992962;28;20064;-32
2023/08/23 09:52:14;;;;;;;4.55;4.15;;;30.00;99.90;;;;;;4998289;28;20642;-35
2023/08/23 09:55:08;;;;;;;6.22;4.93;;;30.30;99.90;;;;;;4995216;28;20026;-32
2023/08/23 09:57:34;;;;;;;4.93;4.20;;;30.10;99.90;;;;;;4999139;28;20092;-40
2023/08/23 10:00:01;;;;;;;8.68;4.68;;;29.60;99.90;;;;;;4998548;28;20034;-34
2023/08/23 10:02:29;;;;;;;7.32;4.70;;;29.50;99.90;;;;;;5001642;28;20026;-40
2023/08/23 10:04:56;;;;;;;4.97;4.53;;;29.20;99.90;;;;;;4994973;28;20029;-37
2023/08/23 10:07:23;;;;;;;6.35;4.85;;;29.10;99.90;;;;;;5002599;28;20030;-38
2023/08/23 10:09:50;;;;;;;4.68;4.28;;;28.80;99.90;;;;;;4993479;28;20502;-33
2023/08/23 10:12:17;;;;;;;7.23;5.27;;;28.70;99.90;;;;;;4996341;28;20046;-41
2023/08/23 10:14:46;;;;;;;5.55;4.60;;;28.70;99.90;;;;;;5000300;28;20407;-40
2023/08/23 10:17:16;;;;;;;5.53;4.82;;;28.60;99.90;;;;;;4998068;28;20045;-34
2023/08/23 10:19:47;;;;;;;6.60;5.15;;;28.40;99.90;;;;;;5002141;28;20046;-39
2023/08/23 10:22:13;;;;;;;7.15;5.07;;;28.50;99.90;;;;;;5001861;28;20028;-38
2023/08/23 10:24:40;;;;;;;5.00;4.37;;;28.50;99.90;;;;;;5000992;28;20411;-39
2023/08/23 10:27:08;;;;;;;5.03;4.63;;;28.80;99.90;;;;;;4999191;28;20291;-38
2023/08/23 10:29:37;;;;;;;6.03;4.82;;;29.50;99.90;;;;;;4999539;28;20610;-38
2023/08/23 10:32:13;;;;;;;5.00;4.50;;;29.30;99.90;;;;;;4994473;28;20054;-38
2023/08/23 10:34:42;;;;;;;6.05;5.10;;;29.30;99.90;;;;;;4998398;28;20044;-40
2023/08/23 10:37:15;;;;;;;7.20;5.00;;;29.50;99.90;;;;;;5003498;28;20049;-37
2023/08/23 10:39:52;;;;;;;8.40;5.72;;;29.80;99.90;;;;;;5000652;28;20034;-40
2023/08/23 10:42:18;;;;;;;;;;;29.70;99.90;;;;;;5004533;28;20502;-40
2023/08/23 10:44:59;;;;;;;6.18;4.47;;;29.80;99.90;;;;;;4997467;28;19917;-40
2023/08/23 10:47:26;;;;;;;4.45;3.92;;;30.20;99.90;;;;;;4998560;28;20030;-40
2023/08/23 10:49:52;;;;;;;5.70;5.07;;;30.20;99.90;;;;;;5003625;28;20515;-37
2023/08/23 10:52:18;;;;;;;6.18;5.13;;;30.30;99.90;;;;;;5001061;28;20085;-37
2023/08/23 10:54:43;;;;;;;4.97;4.47;;;30.50;99.90;;;;;;4998367;28;20050;-37
2023/08/23 10:57:10;;;;;;;6.03;5.07;;;30.80;99.90;;;;;;5001978;28;20057;-39
2023/08/23 10:59:36;;;;;;;5.50;5.00;;;30.50;99.90;;;;;;5002239;28;20361;-39
2023/08/23 11:02:02;;;;;;;5.43;4.23;;;30.50;99.90;;;;;;5000772;28;20045;-38
2023/08/23 11:04:28;;;;;;;7.60;4.82;;;30.50;99.90;;;;;;5000236;28;20030;-38
2023/08/23 11:06:54;;;;;;;4.78;4.28;;;30.60;99.90;;;;;;5001162;28;20117;-38
2023/08/23 11:09:20;;;;;;;6.25;4.25;;;31.10;99.90;;;;;;5001789;28;20169;-37
2023/08/23 11:11:45;;;;;;;4.50;4.10;;;31.40;99.90;;;;;;5002598;28;20089;-39
2023/08/23 11:14:11;;;;;;;4.90;4.50;;;31.60;99.90;;;;;;4998837;28;20044;-40
2023/08/23 11:16:38;;;;;;;6.15;4.25;;;31.40;99.90;;;;;;4998644;28;20038;-40
2023/08/23 11:19:07;;;;;;;;;;;31.30;99.90;;;;;;5002904;28;20039;-40
2023/08/23 11:21:33;;;;;;;4.18;3.78;;;30.80;99.90;;;;;;4995631;28;20350;-38
2023/08/23 11:24:06;;;;;;;4.72;4.32;;;30.40;99.90;;;;;;5001986;28;20547;-39
2023/08/23 11:26:35;;;;;;;6.13;4.38;;;30.00;99.90;;;;;;5003928;28;20042;-39
2023/08/23 11:29:01;;;;;;;6.70;4.60;;;29.70;99.90;;;;;;4998987;28;20530;-38
2023/08/23 11:31:29;;;;;;;7.50;5.20;;;29.70;99.90;;;;;;5000415;28;21853;-37
2023/08/23 11:33:56;;;;;;;;;;;30.00;99.90;;;;;;5000230;28;21396;-37
2023/08/23 11:36:21;;;;;;;7.35;4.28;;;29.80;99.90;;;;;;4999067;28;20002;-40
2023/08/23 11:38:48;;;;;;;4.68;4.20;;;29.80;99.90;;;;;;4993531;28;20656;-40
2023/08/23 11:41:14;;;;;;;5.20;4.70;;;30.20;99.90;;;;;;5002296;28;20491;-39
2023/08/23 11:43:45;;;;;;;5.68;4.45;;;30.40;99.90;;;;;;5004968;28;20083;-36
2023/08/23 11:46:11;;;;;;;5.90;5.00;;;31.00;99.90;;;;;;4985388;28;20044;-40
2023/08/23 11:48:37;;;;;;;7.05;4.88;;;30.50;99.90;;;;;;4995604;28;20695;-39
2023/08/23 11:51:05;;;;;;;5.13;4.00;;;30.20;99.90;;;;;;4998110;28;20022;-36
2023/08/23 11:53:31;;;;;;;5.20;4.70;;;30.40;99.90;;;;;;4998090;28;20423;-40
2023/08/23 11:55:57;;;;;;;5.10;4.60;;;30.80;99.90;;;;;;4995314;28;20088;-39
2023/08/23 11:58:23;;;;;;;5.75;5.22;;;30.60;99.90;;;;;;4999379;28;20030;-41
2023/08/23 12:00:50;;;;;;;6.38;5.07;;;30.60;99.90;;;;;;5003815;28;20064;-36
2023/08/23 12:03:16;;;;;;;5.15;4.65;;;30.20;99.90;;;;;;5000625;28;20026;-40
2023/08/23 12:05:42;;;;;;;7.25;4.70;;;30.20;99.90;;;;;;4999696;28;20033;-38
2023/08/23 12:08:08;;;;;;;5.45;4.95;;;30.30;99.90;;;;;;4991737;28;20044;-31
2023/08/23 12:10:34;;;;;;;4.93;4.53;;;29.90;99.90;;;;;;4995176;28;20042;-31
2023/08/23 12:13:00;;;;;;;5.85;4.93;;;29.60;99.90;;;;;;4998455;28;20030;-35
2023/08/23 12:15:26;;;;;;;9.60;5.22;;;29.80;99.90;;;;;;5003420;28;20028;-33
2023/08/23 12:17:55;;;;;;;8.73;4.85;;;29.70;99.90;;;;;;4997989;28;20076;-38
2023/08/23 12:20:21;;;;;;;6.03;4.82;;;29.60;99.90;;;;;;4998316;28;20417;-33
2023/08/23 12:22:47;;;;;;;5.60;4.95;;;29.40;99.90;;;;;;4996014;28;20036;-36
2023/08/23 12:25:14;;;;;;;7.60;5.00;;;29.60;99.90;;;;;;4996348;28;20036;-35
2023/08/23 12:27:39;;;;;;;5.93;4.95;;;29.80;99.90;;;;;;5000669;28;20061;-32
2023/08/23 12:30:06;;;;;;;8.48;5.32;;;29.40;99.90;;;;;;4995923;28;20519;-35
2023/08/23 12:32:32;;;;;;;5.53;4.93;;;29.20;99.90;;;;;;4998142;28;20492;-39
2023/08/23 12:34:57;;;;;;;5.63;4.90;;;29.30;99.90;;;;;;4992542;28;20041;-38
2023/08/23 12:37:23;;;;;;;5.25;4.72;;;29.40;99.90;;;;;;4999060;28;20412;-41
2023/08/23 12:39:49;;;;;;;5.85;5.35;;;29.40;99.90;;;;;;4996559;28;20037;-34
2023/08/23 12:42:16;;;;;;;5.95;5.05;;;29.40;99.90;;;;;;4993956;28;20030;-36
2023/08/23 12:44:42;;;;;;;5.78;4.97;;;29.40;99.90;;;;;;4999085;28;20109;-38
2023/08/23 12:47:07;;;;;;;5.88;5.18;;;29.30;99.90;;;;;;4995765;28;20109;-40
2023/08/23 12:49:33;;;;;;;5.45;4.95;;;29.20;99.90;;;;;;5002195;28;20117;-39